sensor_id;sensor_type;location;lat;lon;timestamp;pressure;altitude;pressure_sealevel;temperature;humidity
8320;BME280;4197;42.130;24.746;2023-03-04T00:01:00;99650.16;;;3.45;100.00
8320;BME280;4197;42.130;24.746;2023-03-04T00:03:28;99648.94;;;3.51;100.00
8320;BME280;4197;42.130;24.746;2023-03-04T00:05:57;99640.44;;;3.49;100.00
8320;BME280;4197;42.130;24.746;2023-03-04T00:08:26;99638.94;;;3.43;100.00
8320;BME280;4197;42.130;24.746;2023-03-04T00:10:54;99647.13;;;3.38;100.00
8320;BME280;4197;42.130;24.746;2023-03-04T00:13:22;99636.56;;;3.42;100.00
8320;BME280;4197;42.130;24.746;2023-03-04T00:15:51;99636.75;;;3.45;100.00
8320;BME280;4197;42.130;24.746;2023-03-04T00:18:19;99638.22;;;3.51;100.00
8320;BME280;4197;42.130;24.746;2023-03-04T00:20:48;99630.69;;;3.53;100.00
8320;BME280;4197;42.130;24.746;2023-03-04T00:23:16;99631.50;;;3.40;100.00
8320;BME280;4197;42.130;24.746;2023-03-04T00:25:46;99627.16;;;3.30;100.00
8320;BME280;4197;42.130;24.746;2023-03-04T00:28:14;99636.31;;;3.16;100.00
8320;BME280;4197;42.130;24.746;2023-03-04T00:30:42;99642.47;;;3.02;100.00
8320;BME280;4197;42.130;24.746;2023-03-04T00:33:10;99644.84;;;3.04;100.00
8320;BME280;4197;42.130;24.746;2023-03-04T00:35:39;99641.19;;;3.00;100.00
8320;BME280;4197;42.130;24.746;2023-03-04T00:38:07;99641.88;;;3.05;100.00
8320;BME280;4197;42.130;24.746;2023-03-04T00:40:36;99630.16;;;3.15;100.00
8320;BME280;4197;42.130;24.746;2023-03-04T00:43:05;99624.97;;;3.19;100.00
8320;BME280;4197;42.130;24.746;2023-03-04T00:45:33;99632.84;;;3.15;100.00
8320;BME280;4197;42.130;24.746;2023-03-04T00:48:02;99629.38;;;3.15;100.00
8320;BME280;4197;42.130;24.746;2023-03-04T00:50:30;99631.44;;;3.18;100.00
8320;BME280;4197;42.130;24.746;2023-03-04T00:52:58;99631.34;;;3.23;100.00
8320;BME280;4197;42.130;24.746;2023-03-04T00:55:27;99633.41;;;3.26;100.00
8320;BME280;4197;42.130;24.746;2023-03-04T00:57:55;99635.31;;;3.25;100.00
8320;BME280;4197;42.130;24.746;2023-03-04T01:00:25;99640.34;;;3.27;100.00
8320;BME280;4197;42.130;24.746;2023-03-04T01:02:53;99636.59;;;3.28;100.00
8320;BME280;4197;42.130;24.746;2023-03-04T01:05:22;99634.41;;;3.30;100.00
8320;BME280;4197;42.130;24.746;2023-03-04T01:07:50;99636.25;;;3.43;100.00
8320;BME280;4197;42.130;24.746;2023-03-04T01:10:19;99633.88;;;3.42;100.00
8320;BME280;4197;42.130;24.746;2023-03-04T01:12:47;99629.41;;;3.37;100.00
8320;BME280;4197;42.130;24.746;2023-03-04T01:15:15;99629.53;;;3.32;100.00
8320;BME280;4197;42.130;24.746;2023-03-04T01:17:45;99628.63;;;3.37;100.00
8320;BME280;4197;42.130;24.746;2023-03-04T01:20:13;99623.38;;;3.31;100.00
8320;BME280;4197;42.130;24.746;2023-03-04T01:22:41;99621.00;;;3.30;100.00
8320;BME280;4197;42.130;24.746;2023-03-04T01:25:10;99618.19;;;3.35;100.00
8320;BME280;4197;42.130;24.746;2023-03-04T01:27:38;99616.81;;;3.38;100.00
8320;BME280;4197;42.130;24.746;2023-03-04T01:30:07;99618.59;;;3.42;100.00
8320;BME280;4197;42.130;24.746;2023-03-04T01:32:35;99622.56;;;3.45;100.00
8320;BME280;4197;42.130;24.746;2023-03-04T01:35:05;99622.75;;;3.48;100.00
8320;BME280;4197;42.130;24.746;2023-03-04T01:37:34;99614.59;;;3.53;100.00
8320;BME280;4197;42.130;24.746;2023-03-04T01:40:02;99611.91;;;3.53;100.00
8320;BME280;4197;42.130;24.746;2023-03-04T01:42:33;99614.31;;;3.55;100.00
8320;BME280;4197;42.130;24.746;2023-03-04T01:45:02;99606.44;;;3.58;100.00
8320;BME280;4197;42.130;24.746;2023-03-04T01:47:32;99606.63;;;3.62;100.00
8320;BME280;4197;42.130;24.746;2023-03-04T01:50:06;99601.78;;;3.50;100.00
8320;BME280;4197;42.130;24.746;2023-03-04T01:52:40;99604.47;;;3.50;100.00
8320;BME280;4197;42.130;24.746;2023-03-04T01:55:14;99604.91;;;3.44;100.00
8320;BME280;4197;42.130;24.746;2023-03-04T01:57:43;99595.56;;;3.41;100.00
8320;BME280;4197;42.130;24.746;2023-03-04T02:00:27;99600.16;;;3.27;100.00
8320;BME280;4197;42.130;24.746;2023-03-04T02:02:59;99602.97;;;3.22;100.00
8320;BME280;4197;42.130;24.746;2023-03-04T02:05:29;99603.16;;;3.25;100.00
8320;BME280;4197;42.130;24.746;2023-03-04T02:07:58;99601.25;;;3.26;100.00
8320;BME280;4197;42.130;24.746;2023-03-04T02:10:27;99599.06;;;3.28;100.00
8320;BME280;4197;42.130;24.746;2023-03-04T02:12:55;99593.09;;;3.31;100.00
8320;BME280;4197;42.130;24.746;2023-03-04T02:15:24;99596.75;;;3.35;100.00
8320;BME280;4197;42.130;24.746;2023-03-04T02:17:52;99595.66;;;3.50;100.00
8320;BME280;4197;42.130;24.746;2023-03-04T02:20:38;99590.72;;;3.29;100.00
8320;BME280;4197;42.130;24.746;2023-03-04T02:23:14;99595.03;;;3.17;100.00
8320;BME280;4197;42.130;24.746;2023-03-04T02:25:47;99590.19;;;3.05;100.00
8320;BME280;4197;42.130;24.746;2023-03-04T02:28:19;99589.97;;;3.01;100.00
8320;BME280;4197;42.130;24.746;2023-03-04T02:30:47;99579.34;;;3.10;100.00
8320;BME280;4197;42.130;24.746;2023-03-04T02:33:18;99584.47;;;3.34;100.00
8320;BME280;4197;42.130;24.746;2023-03-04T02:35:46;99583.00;;;3.28;100.00
8320;BME280;4197;42.130;24.746;2023-03-04T02:38:14;99572.78;;;3.30;100.00
8320;BME280;4197;42.130;24.746;2023-03-04T02:40:46;99569.09;;;3.26;100.00
8320;BME280;4197;42.130;24.746;2023-03-04T02:43:15;99570.59;;;3.18;100.00
8320;BME280;4197;42.130;24.746;2023-03-04T02:45:46;99567.44;;;3.16;100.00
8320;BME280;4197;42.130;24.746;2023-03-04T02:48:16;99566.63;;;3.16;100.00
8320;BME280;4197;42.130;24.746;2023-03-04T02:50:47;99575.28;;;3.12;100.00
8320;BME280;4197;42.130;24.746;2023-03-04T02:53:16;99572.91;;;3.11;100.00
8320;BME280;4197;42.130;24.746;2023-03-04T02:55:46;99568.38;;;3.34;100.00
8320;BME280;4197;42.130;24.746;2023-03-04T02:58:14;99579.34;;;3.46;100.00
8320;BME280;4197;42.130;24.746;2023-03-04T03:00:42;99582.06;;;3.32;100.00
8320;BME280;4197;42.130;24.746;2023-03-04T03:03:12;99569.69;;;3.23;100.00
8320;BME280;4197;42.130;24.746;2023-03-04T03:05:40;99583.09;;;3.23;100.00
8320;BME280;4197;42.130;24.746;2023-03-04T03:08:08;99590.59;;;3.34;100.00
8320;BME280;4197;42.130;24.746;2023-03-04T03:10:37;99592.22;;;3.35;100.00
8320;BME280;4197;42.130;24.746;2023-03-04T03:13:05;99599.94;;;3.37;100.00
8320;BME280;4197;42.130;24.746;2023-03-04T03:15:33;99596.41;;;3.28;100.00
8320;BME280;4197;42.130;24.746;2023-03-04T03:18:01;99598.47;;;3.31;100.00
8320;BME280;4197;42.130;24.746;2023-03-04T03:20:31;99596.75;;;3.35;100.00
8320;BME280;4197;42.130;24.746;2023-03-04T03:22:59;99603.13;;;3.39;100.00
8320;BME280;4197;42.130;24.746;2023-03-04T03:25:27;99596.28;;;3.33;100.00
8320;BME280;4197;42.130;24.746;2023-03-04T03:27:55;99603.66;;;3.27;100.00
8320;BME280;4197;42.130;24.746;2023-03-04T03:30:23;99602.38;;;3.25;100.00
8320;BME280;4197;42.130;24.746;2023-03-04T03:32:52;99605.31;;;3.23;100.00
8320;BME280;4197;42.130;24.746;2023-03-04T03:35:20;99605.16;;;3.20;100.00
8320;BME280;4197;42.130;24.746;2023-03-04T03:37:50;99597.59;;;3.22;100.00
8320;BME280;4197;42.130;24.746;2023-03-04T03:40:18;99597.00;;;3.25;100.00
8320;BME280;4197;42.130;24.746;2023-03-04T03:42:46;99601.69;;;3.19;100.00
8320;BME280;4197;42.130;24.746;2023-03-04T03:45:15;99599.59;;;3.16;100.00
8320;BME280;4197;42.130;24.746;2023-03-04T03:47:43;99593.44;;;3.16;100.00
8320;BME280;4197;42.130;24.746;2023-03-04T03:50:11;99598.38;;;3.22;100.00
8320;BME280;4197;42.130;24.746;2023-03-04T03:52:39;99602.28;;;3.16;100.00
8320;BME280;4197;42.130;24.746;2023-03-04T03:55:09;99596.41;;;3.14;100.00
8320;BME280;4197;42.130;24.746;2023-03-04T03:57:38;99593.84;;;3.09;100.00
8320;BME280;4197;42.130;24.746;2023-03-04T04:00:07;99599.91;;;3.01;100.00
8320;BME280;4197;42.130;24.746;2023-03-04T04:02:36;99595.44;;;2.96;100.00
8320;BME280;4197;42.130;24.746;2023-03-04T04:05:05;99591.47;;;2.94;100.00
8320;BME280;4197;42.130;24.746;2023-03-04T04:07:34;99590.78;;;2.88;100.00
8320;BME280;4197;42.130;24.746;2023-03-04T04:10:02;99590.78;;;2.88;100.00
8320;BME280;4197;42.130;24.746;2023-03-04T04:12:32;99597.25;;;2.87;100.00
8320;BME280;4197;42.130;24.746;2023-03-04T04:15:01;99596.84;;;2.80;100.00
8320;BME280;4197;42.130;24.746;2023-03-04T04:17:29;99591.47;;;2.80;100.00
8320;BME280;4197;42.130;24.746;2023-03-04T04:19:57;99600.41;;;2.89;100.00
8320;BME280;4197;42.130;24.746;2023-03-04T04:22:25;99589.00;;;2.97;100.00
8320;BME280;4197;42.130;24.746;2023-03-04T04:24:53;99585.03;;;3.08;100.00
8320;BME280;4197;42.130;24.746;2023-03-04T04:27:21;99594.63;;;3.09;100.00
8320;BME280;4197;42.130;24.746;2023-03-04T04:29:51;99599.78;;;3.20;100.00
8320;BME280;4197;42.130;24.746;2023-03-04T04:32:19;99601.41;;;2.93;100.00
8320;BME280;4197;42.130;24.746;2023-03-04T04:34:48;99609.34;;;2.84;100.00
8320;BME280;4197;42.130;24.746;2023-03-04T04:37:16;99609.25;;;2.76;100.00
8320;BME280;4197;42.130;24.746;2023-03-04T04:39:44;99612.13;;;2.79;100.00
8320;BME280;4197;42.130;24.746;2023-03-04T04:42:12;99615.19;;;2.73;100.00
8320;BME280;4197;42.130;24.746;2023-03-04T04:44:40;99614.09;;;2.74;100.00
8320;BME280;4197;42.130;24.746;2023-03-04T04:47:10;99607.53;;;2.80;100.00
8320;BME280;4197;42.130;24.746;2023-03-04T04:49:38;99606.97;;;2.83;100.00
8320;BME280;4197;42.130;24.746;2023-03-04T04:52:06;99605.38;;;2.82;100.00
8320;BME280;4197;42.130;24.746;2023-03-04T04:54:35;99608.13;;;2.90;100.00
8320;BME280;4197;42.130;24.746;2023-03-04T04:57:03;99614.50;;;3.08;100.00
8320;BME280;4197;42.130;24.746;2023-03-04T04:59:31;99612.31;;;2.97;100.00
8320;BME280;4197;42.130;24.746;2023-03-04T05:01:59;99624.72;;;2.93;100.00
8320;BME280;4197;42.130;24.746;2023-03-04T05:04:29;99628.00;;;2.89;100.00
8320;BME280;4197;42.130;24.746;2023-03-04T05:06:57;99623.22;;;2.86;100.00
8320;BME280;4197;42.130;24.746;2023-03-04T05:09:25;99622.81;;;2.79;100.00
8320;BME280;4197;42.130;24.746;2023-03-04T05:11:54;99625.59;;;2.74;100.00
8320;BME280;4197;42.130;24.746;2023-03-04T05:14:23;99628.59;;;2.73;100.00
8320;BME280;4197;42.130;24.746;2023-03-04T05:16:51;99625.81;;;2.64;100.00
8320;BME280;4197;42.130;24.746;2023-03-04T05:19:20;99632.53;;;2.61;100.00
8320;BME280;4197;42.130;24.746;2023-03-04T05:21:50;99630.47;;;2.58;100.00
8320;BME280;4197;42.130;24.746;2023-03-04T05:24:18;99629.16;;;2.56;100.00
8320;BME280;4197;42.130;24.746;2023-03-04T05:26:49;99634.63;;;2.51;100.00
8320;BME280;4197;42.130;24.746;2023-03-04T05:29:17;99636.16;;;2.38;100.00
8320;BME280;4197;42.130;24.746;2023-03-04T05:31:45;99639.53;;;2.30;100.00
8320;BME280;4197;42.130;24.746;2023-03-04T05:34:14;99633.47;;;2.24;100.00
8320;BME280;4197;42.130;24.746;2023-03-04T05:36:43;99640.63;;;2.29;100.00
8320;BME280;4197;42.130;24.746;2023-03-04T05:39:12;99630.38;;;2.17;100.00
8320;BME280;4197;42.130;24.746;2023-03-04T05:41:40;99624.63;;;2.23;100.00
8320;BME280;4197;42.130;24.746;2023-03-04T05:44:08;99626.41;;;2.14;100.00
8320;BME280;4197;42.130;24.746;2023-03-04T05:46:37;99637.47;;;2.08;100.00
8320;BME280;4197;42.130;24.746;2023-03-04T05:49:05;99638.78;;;2.10;100.00
8320;BME280;4197;42.130;24.746;2023-03-04T05:51:33;99646.78;;;2.43;100.00
8320;BME280;4197;42.130;24.746;2023-03-04T05:54:02;99643.25;;;2.61;100.00
8320;BME280;4197;42.130;24.746;2023-03-04T05:56:32;99642.75;;;2.59;100.00
8320;BME280;4197;42.130;24.746;2023-03-04T05:59:00;99638.75;;;2.43;100.00
8320;BME280;4197;42.130;24.746;2023-03-04T06:01:29;99638.81;;;2.24;100.00
8320;BME280;4197;42.130;24.746;2023-03-04T06:03:58;99646.34;;;2.22;100.00
8320;BME280;4197;42.130;24.746;2023-03-04T06:06:26;99654.53;;;2.44;100.00
8320;BME280;4197;42.130;24.746;2023-03-04T06:08:54;99644.84;;;2.76;100.00
8320;BME280;4197;42.130;24.746;2023-03-04T06:11:22;99649.81;;;2.69;100.00
8320;BME280;4197;42.130;24.746;2023-03-04T06:13:52;99662.81;;;2.89;100.00
8320;BME280;4197;42.130;24.746;2023-03-04T06:16:20;99660.53;;;2.97;100.00
8320;BME280;4197;42.130;24.746;2023-03-04T06:18:49;99660.31;;;2.79;100.00
8320;BME280;4197;42.130;24.746;2023-03-04T06:21:17;99655.31;;;2.45;100.00
8320;BME280;4197;42.130;24.746;2023-03-04T06:23:46;99657.38;;;2.34;100.00
8320;BME280;4197;42.130;24.746;2023-03-04T06:26:14;99664.84;;;2.51;100.00
8320;BME280;4197;42.130;24.746;2023-03-04T06:28:44;99663.75;;;2.38;100.00
8320;BME280;4197;42.130;24.746;2023-03-04T06:31:14;99664.13;;;2.45;100.00
8320;BME280;4197;42.130;24.746;2023-03-04T06:33:42;99675.25;;;2.39;100.00
8320;BME280;4197;42.130;24.746;2023-03-04T06:36:12;99677.41;;;2.37;100.00
8320;BME280;4197;42.130;24.746;2023-03-04T06:38:40;99681.06;;;2.41;100.00
8320;BME280;4197;42.130;24.746;2023-03-04T06:41:09;99673.22;;;2.63;100.00
8320;BME280;4197;42.130;24.746;2023-03-04T06:43:39;99686.50;;;2.82;100.00
8320;BME280;4197;42.130;24.746;2023-03-04T06:46:09;99684.53;;;3.02;100.00
8320;BME280;4197;42.130;24.746;2023-03-04T06:48:39;99683.34;;;2.94;100.00
8320;BME280;4197;42.130;24.746;2023-03-04T06:51:08;99680.88;;;3.25;100.00
8320;BME280;4197;42.130;24.746;2023-03-04T06:53:38;99683.63;;;3.34;100.00
8320;BME280;4197;42.130;24.746;2023-03-04T06:56:24;99688.50;;;3.32;100.00
8320;BME280;4197;42.130;24.746;2023-03-04T06:58:52;99695.72;;;3.59;100.00
8320;BME280;4197;42.130;24.746;2023-03-04T07:01:22;99695.66;;;3.87;100.00
8320;BME280;4197;42.130;24.746;2023-03-04T07:03:52;99704.09;;;3.94;100.00
8320;BME280;4197;42.130;24.746;2023-03-04T07:06:22;99692.56;;;3.79;100.00
8320;BME280;4197;42.130;24.746;2023-03-04T07:08:51;99702.69;;;3.96;100.00
8320;BME280;4197;42.130;24.746;2023-03-04T07:11:21;99700.25;;;4.09;100.00
8320;BME280;4197;42.130;24.746;2023-03-04T07:13:49;99700.81;;;4.19;100.00
8320;BME280;4197;42.130;24.746;2023-03-04T07:16:20;99694.44;;;4.15;100.00
8320;BME280;4197;42.130;24.746;2023-03-04T07:18:49;99696.88;;;4.48;100.00
8320;BME280;4197;42.130;24.746;2023-03-04T07:21:18;99703.44;;;4.64;100.00
8320;BME280;4197;42.130;24.746;2023-03-04T07:23:48;99692.50;;;4.52;100.00
8320;BME280;4197;42.130;24.746;2023-03-04T07:26:16;99698.66;;;4.30;100.00
8320;BME280;4197;42.130;24.746;2023-03-04T07:28:45;99701.69;;;4.37;100.00
8320;BME280;4197;42.130;24.746;2023-03-04T07:31:20;99696.25;;;4.51;100.00
8320;BME280;4197;42.130;24.746;2023-03-04T07:33:50;99685.31;;;4.70;100.00
8320;BME280;4197;42.130;24.746;2023-03-04T07:36:20;99690.19;;;4.68;100.00
8320;BME280;4197;42.130;24.746;2023-03-04T07:38:49;99678.97;;;4.66;100.00
8320;BME280;4197;42.130;24.746;2023-03-04T07:41:19;99678.34;;;5.09;100.00
8320;BME280;4197;42.130;24.746;2023-03-04T07:43:48;99681.03;;;5.09;100.00
8320;BME280;4197;42.130;24.746;2023-03-04T07:46:18;99662.84;;;4.97;100.00
8320;BME280;4197;42.130;24.746;2023-03-04T07:48:47;99667.72;;;4.95;100.00
8320;BME280;4197;42.130;24.746;2023-03-04T07:51:18;99671.03;;;4.92;100.00
8320;BME280;4197;42.130;24.746;2023-03-04T07:53:49;99667.47;;;5.14;100.00
8320;BME280;4197;42.130;24.746;2023-03-04T07:56:19;99670.44;;;5.04;100.00
8320;BME280;4197;42.130;24.746;2023-03-04T07:58:48;99676.78;;;5.08;100.00
8320;BME280;4197;42.130;24.746;2023-03-04T08:01:22;99661.03;;;5.24;100.00
8320;BME280;4197;42.130;24.746;2023-03-04T08:03:50;99663.53;;;5.20;100.00
8320;BME280;4197;42.130;24.746;2023-03-04T08:06:19;99667.38;;;5.36;100.00
8320;BME280;4197;42.130;24.746;2023-03-04T08:08:55;99664.53;;;5.42;100.00
8320;BME280;4197;42.130;24.746;2023-03-04T08:11:24;99665.78;;;5.27;100.00
8320;BME280;4197;42.130;24.746;2023-03-04T08:13:54;99663.28;;;5.48;100.00
8320;BME280;4197;42.130;24.746;2023-03-04T08:16:23;99660.44;;;5.53;100.00
8320;BME280;4197;42.130;24.746;2023-03-04T08:18:54;99666.94;;;5.52;100.00
8320;BME280;4197;42.130;24.746;2023-03-04T08:21:24;99667.09;;;5.64;100.00
8320;BME280;4197;42.130;24.746;2023-03-04T08:23:56;99675.78;;;5.78;100.00
8320;BME280;4197;42.130;24.746;2023-03-04T08:26:27;99678.06;;;6.02;100.00
8320;BME280;4197;42.130;24.746;2023-03-04T08:28:56;99682.66;;;5.93;100.00
8320;BME280;4197;42.130;24.746;2023-03-04T08:31:24;99677.84;;;5.90;100.00
8320;BME280;4197;42.130;24.746;2023-03-04T08:33:53;99677.53;;;5.92;100.00
8320;BME280;4197;42.130;24.746;2023-03-04T08:36:22;99674.56;;;6.11;100.00
8320;BME280;4197;42.130;24.746;2023-03-04T08:38:50;99681.69;;;5.98;100.00
8320;BME280;4197;42.130;24.746;2023-03-04T08:41:20;99675.34;;;6.11;100.00
8320;BME280;4197;42.130;24.746;2023-03-04T08:43:48;99673.94;;;6.14;100.00
8320;BME280;4197;42.130;24.746;2023-03-04T08:46:16;99675.84;;;6.13;100.00
8320;BME280;4197;42.130;24.746;2023-03-04T08:48:44;99671.63;;;6.68;100.00
8320;BME280;4197;42.130;24.746;2023-03-04T08:51:14;99682.44;;;6.98;100.00
8320;BME280;4197;42.130;24.746;2023-03-04T08:53:43;99680.50;;;6.98;100.00
8320;BME280;4197;42.130;24.746;2023-03-04T08:56:12;99678.28;;;7.00;100.00
8320;BME280;4197;42.130;24.746;2023-03-04T08:58:42;99676.84;;;7.03;100.00
8320;BME280;4197;42.130;24.746;2023-03-04T09:01:12;99673.03;;;7.12;100.00
8320;BME280;4197;42.130;24.746;2023-03-04T09:03:41;99671.59;;;7.15;100.00
8320;BME280;4197;42.130;24.746;2023-03-04T09:06:11;99667.41;;;7.18;100.00
8320;BME280;4197;42.130;24.746;2023-03-04T09:08:40;99659.16;;;7.23;100.00
8320;BME280;4197;42.130;24.746;2023-03-04T09:11:09;99659.38;;;6.79;100.00
8320;BME280;4197;42.130;24.746;2023-03-04T09:13:37;99653.31;;;6.82;100.00
8320;BME280;4197;42.130;24.746;2023-03-04T09:16:10;99652.59;;;7.32;100.00
8320;BME280;4197;42.130;24.746;2023-03-04T09:18:38;99649.19;;;7.44;100.00
8320;BME280;4197;42.130;24.746;2023-03-04T09:21:09;99650.06;;;7.57;100.00
8320;BME280;4197;42.130;24.746;2023-03-04T09:23:37;99655.13;;;7.79;100.00
8320;BME280;4197;42.130;24.746;2023-03-04T09:26:13;99650.97;;;7.61;100.00
8320;BME280;4197;42.130;24.746;2023-03-04T09:28:43;99645.09;;;7.59;100.00
8320;BME280;4197;42.130;24.746;2023-03-04T09:31:13;99648.31;;;7.94;100.00
8320;BME280;4197;42.130;24.746;2023-03-04T09:33:41;99641.09;;;7.86;100.00
8320;BME280;4197;42.130;24.746;2023-03-04T09:36:11;99649.78;;;8.25;100.00
8320;BME280;4197;42.130;24.746;2023-03-04T09:38:41;99644.72;;;8.57;100.00
8320;BME280;4197;42.130;24.746;2023-03-04T09:41:14;99641.59;;;8.79;100.00
8320;BME280;4197;42.130;24.746;2023-03-04T09:43:44;99642.97;;;9.10;100.00
8320;BME280;4197;42.130;24.746;2023-03-04T09:46:17;99640.47;;;9.17;100.00
8320;BME280;4197;42.130;24.746;2023-03-04T09:48:49;99636.50;;;9.39;100.00
8320;BME280;4197;42.130;24.746;2023-03-04T09:51:20;99635.97;;;9.21;100.00
8320;BME280;4197;42.130;24.746;2023-03-04T09:54:00;99637.19;;;9.48;100.00
8320;BME280;4197;42.130;24.746;2023-03-04T09:56:33;99634.44;;;9.89;100.00
8320;BME280;4197;42.130;24.746;2023-03-04T09:59:08;99638.25;;;10.00;100.00
8320;BME280;4197;42.130;24.746;2023-03-04T10:01:44;99626.84;;;9.78;100.00
8320;BME280;4197;42.130;24.746;2023-03-04T10:04:17;99626.69;;;9.87;100.00
8320;BME280;4197;42.130;24.746;2023-03-04T10:06:47;99625.34;;;10.09;100.00
8320;BME280;4197;42.130;24.746;2023-03-04T10:09:22;99619.63;;;9.98;100.00
8320;BME280;4197;42.130;24.746;2023-03-04T10:11:59;99616.56;;;10.00;100.00
8320;BME280;4197;42.130;24.746;2023-03-04T10:14:37;99614.09;;;9.95;100.00
8320;BME280;4197;42.130;24.746;2023-03-04T10:17:13;99622.75;;;9.85;100.00
8320;BME280;4197;42.130;24.746;2023-03-04T10:19:58;99612.75;;;10.01;100.00
8320;BME280;4197;42.130;24.746;2023-03-04T10:22:32;99609.13;;;9.97;100.00
8320;BME280;4197;42.130;24.746;2023-03-04T10:25:15;99608.97;;;9.90;100.00
8320;BME280;4197;42.130;24.746;2023-03-04T10:27:49;99600.53;;;9.79;100.00
8320;BME280;4197;42.130;24.746;2023-03-04T10:30:38;99603.19;;;9.91;100.00
8320;BME280;4197;42.130;24.746;2023-03-04T10:33:13;99596.00;;;9.83;100.00
8320;BME280;4197;42.130;24.746;2023-03-04T10:35:44;99585.06;;;9.79;100.00
8320;BME280;4197;42.130;24.746;2023-03-04T10:38:14;99584.75;;;9.69;100.00
8320;BME280;4197;42.130;24.746;2023-03-04T10:40:43;99579.50;;;9.88;100.00
8320;BME280;4197;42.130;24.746;2023-03-04T10:43:15;99578.47;;;9.93;100.00
8320;BME280;4197;42.130;24.746;2023-03-04T10:45:44;99576.94;;;9.79;100.00
8320;BME280;4197;42.130;24.746;2023-03-04T10:48:22;99568.28;;;9.74;100.00
8320;BME280;4197;42.130;24.746;2023-03-04T10:50:51;99566.84;;;9.64;100.00
8320;BME280;4197;42.130;24.746;2023-03-04T10:53:29;99573.00;;;9.36;100.00
8320;BME280;4197;42.130;24.746;2023-03-04T10:55:59;99559.53;;;9.24;100.00
8320;BME280;4197;42.130;24.746;2023-03-04T10:58:28;99559.88;;;9.10;100.00
8320;BME280;4197;42.130;24.746;2023-03-04T11:01:02;99555.03;;;9.16;100.00
8320;BME280;4197;42.130;24.746;2023-03-04T11:03:34;99552.78;;;9.18;100.00
8320;BME280;4197;42.130;24.746;2023-03-04T11:06:05;99545.53;;;9.22;100.00
8320;BME280;4197;42.130;24.746;2023-03-04T11:08:33;99534.34;;;9.36;100.00
8320;BME280;4197;42.130;24.746;2023-03-04T11:11:02;99536.03;;;9.41;100.00
8320;BME280;4197;42.130;24.746;2023-03-04T11:13:30;99527.16;;;9.56;100.00
8320;BME280;4197;42.130;24.746;2023-03-04T11:16:01;99519.41;;;9.54;100.00
8320;BME280;4197;42.130;24.746;2023-03-04T11:18:37;99512.59;;;9.60;100.00
8320;BME280;4197;42.130;24.746;2023-03-04T11:21:12;99506.53;;;9.79;100.00
8320;BME280;4197;42.130;24.746;2023-03-04T11:23:45;99504.53;;;10.08;100.00
8320;BME280;4197;42.130;24.746;2023-03-04T11:26:17;99510.56;;;10.01;100.00
8320;BME280;4197;42.130;24.746;2023-03-04T11:28:50;99500.53;;;10.02;100.00
8320;BME280;4197;42.130;24.746;2023-03-04T11:31:22;99506.56;;;9.95;100.00
8320;BME280;4197;42.130;24.746;2023-03-04T11:33:56;99497.47;;;10.03;100.00
8320;BME280;4197;42.130;24.746;2023-03-04T11:36:33;99501.94;;;10.27;100.00
8320;BME280;4197;42.130;24.746;2023-03-04T11:39:04;99489.44;;;10.39;100.00
8320;BME280;4197;42.130;24.746;2023-03-04T11:41:51;99483.41;;;10.30;100.00
8320;BME280;4197;42.130;24.746;2023-03-04T11:44:21;99478.16;;;10.21;100.00
8320;BME280;4197;42.130;24.746;2023-03-04T11:47:01;99480.78;;;10.17;100.00
8320;BME280;4197;42.130;24.746;2023-03-04T11:50:09;99482.78;;;10.04;100.00
8320;BME280;4197;42.130;24.746;2023-03-04T11:52:57;99472.91;;;9.96;100.00
8320;BME280;4197;42.130;24.746;2023-03-04T11:55:37;99474.75;;;9.92;100.00
8320;BME280;4197;42.130;24.746;2023-03-04T11:58:37;99468.09;;;10.05;100.00
8320;BME280;4197;42.130;24.746;2023-03-04T12:01:09;99469.50;;;10.15;100.00
8320;BME280;4197;42.130;24.746;2023-03-04T12:06:47;99477.25;;;10.17;100.00
8320;BME280;4197;42.130;24.746;2023-03-04T12:09:28;99470.81;;;10.05;100.00
8320;BME280;4197;42.130;24.746;2023-03-04T12:12:05;99470.53;;;10.11;100.00
8320;BME280;4197;42.130;24.746;2023-03-04T12:14:43;99469.09;;;10.29;100.00
8320;BME280;4197;42.130;24.746;2023-03-04T12:17:24;99467.88;;;10.42;100.00
8320;BME280;4197;42.130;24.746;2023-03-04T12:20:16;99459.22;;;10.37;100.00
8320;BME280;4197;42.130;24.746;2023-03-04T12:22:57;99450.88;;;10.45;100.00
8320;BME280;4197;42.130;24.746;2023-03-04T12:25:38;99457.28;;;10.37;100.00
8320;BME280;4197;42.130;24.746;2023-03-04T12:28:34;99454.97;;;10.55;100.00
8320;BME280;4197;42.130;24.746;2023-03-04T12:31:24;99447.84;;;10.66;100.00
8320;BME280;4197;42.130;24.746;2023-03-04T12:34:11;99454.88;;;10.67;100.00
8320;BME280;4197;42.130;24.746;2023-03-04T12:36:51;99447.53;;;10.87;100.00
8320;BME280;4197;42.130;24.746;2023-03-04T12:39:29;99439.25;;;10.80;100.00
8320;BME280;4197;42.130;24.746;2023-03-04T12:42:08;99437.47;;;10.53;100.00
8320;BME280;4197;42.130;24.746;2023-03-04T12:44:46;99437.41;;;10.49;100.00
8320;BME280;4197;42.130;24.746;2023-03-04T12:47:23;99431.28;;;10.52;100.00
8320;BME280;4197;42.130;24.746;2023-03-04T12:50:21;99428.47;;;10.64;100.00
8320;BME280;4197;42.130;24.746;2023-03-04T12:52:59;99425.06;;;10.87;100.00
8320;BME280;4197;42.130;24.746;2023-03-04T12:55:37;99424.84;;;11.15;100.00
8320;BME280;4197;42.130;24.746;2023-03-04T12:58:14;99418.03;;;11.25;100.00
8320;BME280;4197;42.130;24.746;2023-03-04T13:00:54;99420.19;;;10.96;100.00
8320;BME280;4197;42.130;24.746;2023-03-04T13:03:30;99416.03;;;10.63;100.00
8320;BME280;4197;42.130;24.746;2023-03-04T13:06:13;99407.06;;;10.43;100.00
8320;BME280;4197;42.130;24.746;2023-03-04T13:08:52;99411.13;;;11.08;100.00
8320;BME280;4197;42.130;24.746;2023-03-04T13:11:50;99407.25;;;11.28;100.00
8320;BME280;4197;42.130;24.746;2023-03-04T13:14:30;99398.97;;;11.21;100.00
8320;BME280;4197;42.130;24.746;2023-03-04T13:17:00;99394.78;;;11.47;100.00
8320;BME280;4197;42.130;24.746;2023-03-04T13:19:43;99392.16;;;11.50;100.00
8320;BME280;4197;42.130;24.746;2023-03-04T13:22:40;99390.84;;;11.44;100.00
8320;BME280;4197;42.130;24.746;2023-03-04T13:25:38;99398.50;;;11.38;100.00
8320;BME280;4197;42.130;24.746;2023-03-04T13:28:25;99386.41;;;11.55;100.00
8320;BME280;4197;42.130;24.746;2023-03-04T13:31:21;99379.59;;;11.42;100.00
8320;BME280;4197;42.130;24.746;2023-03-04T13:33:58;99379.44;;;11.35;100.00
8320;BME280;4197;42.130;24.746;2023-03-04T13:36:51;99380.25;;;11.58;100.00